Time;durP1;ratioP1;P1;durP2;ratioP2;P2;SDS_P1;SDS_P2;PMS_P1;PMS_P2;Temp;Humidity;BMP_temperature;BMP_pressure;BME280_temperature;BME280_humidity;BME280_pressure;Samples;Min_cycle;Max_cycle;Signal;HPM_P1;HPM_P2
2022/03/03 03:12:55;;;;;;;51.97;28.17;;;1.40;99.90;;;;;;4981642;28;20203;-83
2022/03/03 03:15:21;;;;;;;53.07;28.60;;;1.40;99.90;;;;;;4972417;28;20614;-83
2022/03/03 03:17:47;;;;;;;52.07;28.53;;;1.20;99.90;;;;;;4966402;28;20215;-83
2022/03/03 03:20:13;;;;;;;53.70;29.03;;;1.00;99.90;;;;;;4967475;28;20195;-83
2022/03/03 03:22:39;;;;;;;56.23;30.47;;;1.10;99.90;;;;;;4971196;28;20180;-83
2022/03/03 03:25:07;;;;;;;54.37;29.27;;;0.90;99.90;;;;;;4968505;28;20255;-84
2022/03/03 03:27:34;;;;;;;59.50;32.10;;;0.80;99.90;;;;;;4974658;28;20188;-83
2022/03/03 03:29:59;;;;;;;54.67;29.27;;;0.80;99.90;;;;;;4975127;28;20243;-83
2022/03/03 03:32:25;;;;;;;62.07;31.97;;;1.00;99.90;;;;;;4962803;28;20184;-83
2022/03/03 03:34:51;;;;;;;57.40;31.17;;;1.10;99.90;;;;;;4971755;28;20176;-83
2022/03/03 03:37:17;;;;;;;54.13;28.53;;;1.10;99.90;;;;;;4964810;28;20206;-83
2022/03/03 03:39:43;;;;;;;54.17;30.03;;;1.20;99.90;;;;;;4955761;28;20176;-83
2022/03/03 03:42:09;;;;;;;54.60;30.07;;;1.30;99.90;;;;;;4971482;28;20199;-83
2022/03/03 03:44:44;;;;;;;52.77;28.40;;;1.30;99.90;;;;;;4972880;28;20185;-83
2022/03/03 03:47:12;;;;;;;53.07;27.17;;;1.20;99.90;;;;;;4978492;28;20186;-83
2022/03/03 03:49:38;;;;;;;47.07;26.67;;;1.30;99.90;;;;;;4974202;28;20167;-83
2022/03/03 03:52:04;;;;;;;48.30;26.47;;;1.20;99.90;;;;;;4976732;28;20227;-83
2022/03/03 03:54:30;;;;;;;45.77;25.27;;;1.10;99.90;;;;;;4973968;28;20176;-83
2022/03/03 03:56:55;;;;;;;46.90;24.27;;;0.90;99.90;;;;;;4973973;28;20718;-83
2022/03/03 03:59:21;;;;;;;48.17;25.13;;;0.80;99.90;;;;;;4976304;28;20182;-84
2022/03/03 04:01:47;;;;;;;47.23;26.37;;;1.00;99.90;;;;;;4975373;28;20196;-82
2022/03/03 04:04:12;;;;;;;47.87;26.40;;;1.00;99.90;;;;;;4974332;28;20180;-82
2022/03/03 04:06:38;;;;;;;45.17;25.60;;;0.80;99.90;;;;;;4972051;28;20265;-83
2022/03/03 04:09:04;;;;;;;50.47;26.17;;;0.70;99.90;;;;;;4979264;28;20188;-82
2022/03/03 04:11:30;;;;;;;48.90;26.83;;;0.70;99.90;;;;;;4965382;28;20212;-83
2022/03/03 04:13:57;;;;;;;48.00;25.23;;;0.60;99.90;;;;;;4970202;28;20242;-83
2022/03/03 04:16:26;;;;;;;48.23;25.53;;;0.60;99.90;;;;;;4974277;28;20254;-82
2022/03/03 04:18:52;;;;;;;48.23;26.60;;;0.50;99.90;;;;;;4974898;28;20183;-82
2022/03/03 04:21:18;;;;;;;47.43;24.93;;;0.50;99.90;;;;;;4974305;28;20290;-82
2022/03/03 04:23:44;;;;;;;42.77;24.70;;;0.60;99.90;;;;;;4972046;28;20214;-82
2022/03/03 04:26:10;;;;;;;44.33;24.97;;;0.60;99.90;;;;;;4975367;28;20582;-82
2022/03/03 04:28:36;;;;;;;47.97;26.43;;;0.50;99.90;;;;;;4971887;28;20208;-83
2022/03/03 04:31:02;;;;;;;45.03;25.23;;;0.50;99.90;;;;;;4975791;28;20202;-83
2022/03/03 04:33:28;;;;;;;44.80;23.47;;;0.50;99.90;;;;;;4977260;28;20199;-83
2022/03/03 04:35:53;;;;;;;47.87;25.03;;;0.70;99.90;;;;;;4975556;28;20242;-82
2022/03/03 04:38:19;;;;;;;44.53;24.67;;;0.80;99.90;;;;;;4982468;28;20215;-83
2022/03/03 04:40:45;;;;;;;49.93;25.57;;;0.90;99.90;;;;;;4980151;28;20531;-83
2022/03/03 04:43:11;;;;;;;42.97;23.13;;;0.80;99.90;;;;;;4978291;28;20187;-82
2022/03/03 04:45:37;;;;;;;43.17;24.40;;;0.50;99.90;;;;;;4982706;28;20166;-83
2022/03/03 04:48:03;;;;;;;46.77;24.33;;;0.50;99.90;;;;;;4981425;28;20211;-82
2022/03/03 04:50:30;;;;;;;49.00;25.60;;;0.50;99.90;;;;;;4980269;28;20331;-79
2022/03/03 04:52:56;;;;;;;46.63;24.37;;;0.50;99.90;;;;;;4983029;28;20183;-80
2022/03/03 04:55:22;;;;;;;42.07;23.93;;;0.60;99.90;;;;;;4994548;28;20270;-83
2022/03/03 04:57:48;;;;;;;42.10;23.17;;;0.60;99.90;;;;;;4978292;28;20241;-83
2022/03/03 05:00:14;;;;;;;40.53;23.17;;;0.70;99.90;;;;;;4982315;28;20211;-82
2022/03/03 05:02:40;;;;;;;42.50;22.47;;;0.80;99.90;;;;;;4986914;28;20208;-83
2022/03/03 05:05:06;;;;;;;43.53;22.67;;;0.80;99.90;;;;;;4981611;28;20172;-82
2022/03/03 05:07:32;;;;;;;41.00;22.27;;;0.60;99.90;;;;;;4978120;28;20257;-83
2022/03/03 05:09:58;;;;;;;44.30;22.90;;;0.70;99.90;;;;;;4977995;28;20179;-83
2022/03/03 05:12:24;;;;;;;43.93;24.60;;;0.80;99.90;;;;;;4975823;28;20272;-82
2022/03/03 05:14:50;;;;;;;39.33;21.97;;;0.70;99.90;;;;;;4977883;28;20180;-82
2022/03/03 05:17:16;;;;;;;39.80;21.03;;;0.60;99.90;;;;;;4978046;28;20203;-83
2022/03/03 05:19:41;;;;;;;39.97;21.27;;;0.80;99.90;;;;;;4979899;28;20255;-83
2022/03/03 05:22:07;;;;;;;40.13;22.57;;;0.70;99.90;;;;;;4978494;28;20203;-82
2022/03/03 05:24:33;;;;;;;39.33;21.33;;;0.70;99.90;;;;;;4971336;28;20246;-83
2022/03/03 05:26:58;;;;;;;36.03;20.83;;;0.60;99.90;;;;;;4969568;28;20637;-84
2022/03/03 05:29:25;;;;;;;38.47;21.70;;;0.70;99.90;;;;;;4968291;28;20571;-83
2022/03/03 05:31:51;;;;;;;39.97;23.30;;;0.80;99.90;;;;;;4966583;28;20695;-83
2022/03/03 05:34:16;;;;;;;43.60;22.77;;;0.70;99.90;;;;;;4972846;28;20183;-83
2022/03/03 05:36:42;;;;;;;41.10;21.53;;;0.70;99.90;;;;;;4970533;28;20206;-83
2022/03/03 05:39:09;;;;;;;44.20;23.03;;;0.70;99.90;;;;;;4968021;28;20176;-84
2022/03/03 05:41:34;;;;;;;39.73;21.90;;;0.60;99.90;;;;;;4970086;28;20206;-83
2022/03/03 05:44:00;;;;;;;49.80;24.77;;;0.50;99.90;;;;;;4969055;28;20627;-84
2022/03/03 05:46:27;;;;;;;45.77;23.40;;;0.50;99.90;;;;;;4987244;28;20187;-83
2022/03/03 05:48:52;;;;;;;56.47;24.17;;;0.30;99.90;;;;;;4967714;28;20202;-83
2022/03/03 05:51:19;;;;;;;44.73;23.53;;;0.40;99.90;;;;;;4968548;28;20214;-83
2022/03/03 05:53:45;;;;;;;57.33;22.37;;;0.20;99.90;;;;;;4992943;28;20185;-82
2022/03/03 05:56:19;;;;;;;45.53;22.37;;;-0.10;99.90;;;;;;4999939;28;20185;-83
2022/03/03 05:58:48;;;;;;;49.83;23.93;;;-0.20;99.90;;;;;;4999425;28;20172;-83
2022/03/03 06:01:15;;;;;;;50.67;25.33;;;-0.10;99.90;;;;;;5000051;28;20231;-83
2022/03/03 06:03:42;;;;;;;72.33;26.27;;;0.10;99.90;;;;;;5000737;28;20168;-83
2022/03/03 06:06:21;;;;;;;55.83;26.70;;;0.20;99.90;;;;;;5004091;28;20184;-83
2022/03/03 06:09:08;;;;;;;52.83;25.67;;;0.30;99.90;;;;;;5009838;28;20180;-83
2022/03/03 06:11:42;;;;;;;82.07;25.90;;;0.10;99.90;;;;;;5007743;28;20719;-83
2022/03/03 06:14:09;;;;;;;57.13;26.13;;;0.00;99.90;;;;;;5009330;28;20174;-84
2022/03/03 06:16:36;;;;;;;57.33;25.70;;;-0.10;99.90;;;;;;5006563;28;20200;-82
2022/03/03 06:19:03;;;;;;;58.57;25.10;;;-0.10;99.90;;;;;;5001021;28;20189;-82
2022/03/03 06:21:29;;;;;;;57.17;25.40;;;0.00;99.90;;;;;;5002143;28;20227;-84
2022/03/03 06:23:56;;;;;;;64.07;27.53;;;0.00;99.90;;;;;;5002453;28;20185;-82
2022/03/03 06:26:22;;;;;;;59.67;26.03;;;0.20;99.90;;;;;;5002393;28;20179;-83
2022/03/03 06:28:48;;;;;;;56.13;25.83;;;0.40;99.90;;;;;;5005256;28;20198;-84
2022/03/03 06:31:14;;;;;;;55.27;25.87;;;0.30;99.90;;;;;;5000011;28;20260;-84
2022/03/03 06:33:41;;;;;;;54.57;26.13;;;0.30;99.90;;;;;;4999610;28;20183;-84
2022/03/03 06:36:07;;;;;;;53.10;24.53;;;0.40;99.90;;;;;;4999695;28;20186;-84
2022/03/03 06:38:34;;;;;;;43.87;22.80;;;0.40;99.90;;;;;;4991220;28;20183;-85
2022/03/03 06:41:02;;;;;;;42.70;21.77;;;0.30;99.90;;;;;;4994716;28;20329;-84
2022/03/03 06:43:29;;;;;;;38.93;20.90;;;0.50;99.90;;;;;;4995088;28;20177;-84
2022/03/03 06:45:56;;;;;;;39.03;20.33;;;0.70;99.90;;;;;;5000346;28;20178;-84
2022/03/03 06:48:22;;;;;;;38.33;20.90;;;0.60;99.90;;;;;;5000084;28;20179;-84
2022/03/03 06:50:51;;;;;;;38.10;20.73;;;0.50;99.90;;;;;;4998810;28;20549;-84
2022/03/03 06:53:30;;;;;;;40.13;21.33;;;0.50;99.90;;;;;;4995162;28;20319;-84
2022/03/03 06:56:06;;;;;;;41.40;20.73;;;0.40;99.90;;;;;;4996786;28;20186;-83
2022/03/03 06:58:32;;;;;;;41.27;20.87;;;0.40;99.90;;;;;;4999219;28;20225;-83
2022/03/03 07:01:03;;;;;;;40.37;20.70;;;0.50;99.90;;;;;;4999771;28;20201;-86
2022/03/03 07:03:30;;;;;;;35.53;19.47;;;0.40;99.90;;;;;;5001529;28;20175;-82
2022/03/03 07:05:57;;;;;;;35.00;18.93;;;0.40;99.90;;;;;;4999358;28;20202;-82
2022/03/03 07:08:23;;;;;;;33.33;18.57;;;0.40;99.90;;;;;;4997502;28;20182;-82
2022/03/03 07:10:49;;;;;;;34.20;19.40;;;0.40;99.90;;;;;;4996317;28;20203;-82
2022/03/03 07:13:19;;;;;;;35.57;18.23;;;0.40;99.90;;;;;;4998185;28;20194;-82
2022/03/03 07:15:53;;;;;;;31.77;17.77;;;0.50;99.90;;;;;;5002053;28;20197;-81
2022/03/03 07:18:23;;;;;;;30.47;17.40;;;0.50;99.90;;;;;;4999146;28;20211;-82
2022/03/03 07:20:55;;;;;;;28.23;16.40;;;0.50;99.90;;;;;;5001656;28;20224;-82
2022/03/03 07:23:30;;;;;;;27.90;16.40;;;0.40;99.90;;;;;;5001474;28;20175;-82
2022/03/03 07:25:59;;;;;;;26.57;16.07;;;0.60;99.90;;;;;;5001287;28;20175;-83
2022/03/03 07:28:28;;;;;;;26.00;15.07;;;0.50;99.90;;;;;;5000939;28;20246;-82
2022/03/03 07:30:54;;;;;;;25.37;14.70;;;0.50;99.90;;;;;;5001459;28;20305;-82
2022/03/03 07:33:55;;;;;;;30.10;14.63;;;0.50;99.90;;;;;;4995397;28;20186;-82
2022/03/03 07:36:28;;;;;;;27.97;15.97;;;0.70;99.90;;;;;;4991078;28;20390;-82
2022/03/03 07:39:16;;;;;;;28.73;14.83;;;0.80;99.90;;;;;;5000502;28;20269;-83
2022/03/03 07:41:42;;;;;;;27.00;15.73;;;0.80;99.90;;;;;;5001021;28;20325;-82
2022/03/03 07:44:08;;;;;;;31.90;16.10;;;0.70;99.90;;;;;;4996685;28;20179;-82
2022/03/03 07:46:34;;;;;;;30.77;16.00;;;0.70;99.90;;;;;;5002923;28;20195;-82
2022/03/03 07:49:01;;;;;;;29.27;16.37;;;0.80;99.90;;;;;;4996389;28;20185;-82
2022/03/03 07:51:27;;;;;;;25.07;14.10;;;1.00;99.90;;;;;;5003843;28;20566;-82
2022/03/03 07:53:54;;;;;;;24.80;13.80;;;1.00;99.90;;;;;;5006408;28;20182;-83
2022/03/03 07:56:26;;;;;;;21.87;12.20;;;1.10;99.90;;;;;;5002922;28;20423;-82
2022/03/03 07:58:59;;;;;;;23.37;12.40;;;1.00;99.90;;;;;;5003846;28;20167;-82
2022/03/03 08:01:26;;;;;;;19.63;10.97;;;1.10;99.90;;;;;;4989096;28;20190;-82
2022/03/03 08:03:52;;;;;;;19.07;10.30;;;1.10;99.90;;;;;;5001431;28;20517;-80
2022/03/03 08:06:20;;;;;;;20.67;10.70;;;1.00;99.90;;;;;;5001512;28;20171;-82
2022/03/03 08:08:46;;;;;;;19.77;9.93;;;1.10;99.90;;;;;;4993188;28;20208;-80
2022/03/03 08:11:13;;;;;;;18.87;10.10;;;1.20;99.90;;;;;;4984972;28;20218;-81
2022/03/03 08:13:39;;;;;;;18.93;11.30;;;1.30;99.90;;;;;;4999360;28;20179;-81
2022/03/03 08:16:05;;;;;;;18.57;10.97;;;1.50;99.90;;;;;;5002337;28;20171;-81
2022/03/03 08:18:35;;;;;;;20.47;10.63;;;1.40;99.90;;;;;;5000685;28;20260;-81
2022/03/03 08:21:05;;;;;;;22.20;10.60;;;1.50;99.90;;;;;;5002206;28;20337;-81
2022/03/03 08:23:32;;;;;;;20.00;10.87;;;1.50;99.90;;;;;;5001331;28;20243;-80
2022/03/03 08:26:00;;;;;;;20.93;10.67;;;1.50;99.90;;;;;;4984854;28;20202;-81
2022/03/03 08:28:26;;;;;;;18.17;9.70;;;1.50;99.90;;;;;;5001070;28;20171;-80
2022/03/03 08:30:58;;;;;;;19.50;10.63;;;1.80;99.90;;;;;;5001681;28;20229;-82
2022/03/03 08:33:41;;;;;;;20.07;10.67;;;1.90;99.90;;;;;;4995639;28;20178;-81
2022/03/03 08:36:30;;;;;;;17.83;10.43;;;1.80;99.90;;;;;;4995839;28;20198;-80
2022/03/03 08:39:06;;;;;;;21.63;11.63;;;1.80;99.90;;;;;;4994819;28;20179;-81
2022/03/03 08:41:38;;;;;;;18.03;10.63;;;1.90;99.90;;;;;;4995988;28;20732;-81
2022/03/03 08:44:05;;;;;;;17.37;10.47;;;1.90;99.90;;;;;;4991117;28;20174;-81
2022/03/03 08:46:34;;;;;;;19.33;10.67;;;1.90;99.90;;;;;;5001309;28;20170;-81
2022/03/03 08:49:03;;;;;;;17.13;10.37;;;1.80;99.90;;;;;;4997613;28;20452;-82
2022/03/03 08:51:29;;;;;;;19.47;11.07;;;1.80;99.90;;;;;;4998792;28;20210;-81
2022/03/03 08:54:07;;;;;;;21.07;10.03;;;1.90;99.90;;;;;;5000537;28;20178;-82
2022/03/03 08:56:33;;;;;;;19.43;10.67;;;1.90;99.90;;;;;;5001569;28;20736;-82
2022/03/03 08:58:59;;;;;;;20.70;11.47;;;2.00;99.90;;;;;;5004290;28;20278;-85
2022/03/03 09:01:29;;;;;;;18.30;10.53;;;2.10;99.90;;;;;;5008789;28;20198;-86
2022/03/03 09:03:58;;;;;;;20.60;10.87;;;2.10;99.90;;;;;;5007413;28;20177;-85
2022/03/03 09:06:24;;;;;;;23.97;11.63;;;2.10;99.90;;;;;;5003360;28;20178;-84
2022/03/03 09:08:50;;;;;;;22.63;11.97;;;2.00;99.90;;;;;;5003892;28;20594;-83
2022/03/03 09:44:14;;;;;;;18.73;11.20;;;3.00;99.90;;;;;;4995034;28;20159;-85
2022/03/03 09:47:50;;;;;;;21.70;11.17;;;2.90;99.90;;;;;;4918031;29;20182;-86
2022/03/03 09:51:32;;;;;;;22.87;11.70;;;2.80;99.90;;;;;;4923220;29;20246;-86
2022/03/03 10:23:35;;;;;;;;;;;;;;;;;;;;;
2022/03/03 10:27:09;;;;;;;13.77;8.37;;;3.20;99.90;;;;;;4548886;31;20356;-83
2022/03/03 10:30:48;;;;;;;16.17;8.47;;;3.20;99.90;;;;;;4568241;31;20237;-84
2022/03/03 10:38:40;;;;;;;;;;;;;;;;;;;;;
2022/03/03 10:58:14;;;;;;;10.83;6.63;;;3.70;99.90;;;;;;4671714;30;20225;-84
2022/03/03 11:07:02;;;;;;;12.63;6.67;;;3.80;99.90;;;;;;4670217;30;20738;-85
2022/03/03 11:13:21;;;;;;;11.97;6.47;;;4.20;99.90;;;;;;4843175;29;20250;-84
2022/03/03 11:32:02;;;;;;;;;;;;;;;;;;;;;
2022/03/03 11:47:23;;;;;;;10.93;6.80;;;6.20;99.90;;;;;;4918510;29;20189;-84
2022/03/03 11:50:52;;;;;;;12.37;6.43;;;5.90;99.90;;;;;;4918851;29;20257;-85
2022/03/03 11:53:27;;;;;;;9.77;6.70;;;5.60;99.90;;;;;;4895921;29;20312;-83
2022/03/03 11:56:26;;;;;;;9.60;6.80;;;5.40;99.90;;;;;;4963368;28;20184;-82
2022/03/03 11:59:20;;;;;;;11.20;6.90;;;5.10;99.90;;;;;;4965410;28;20192;-83
2022/03/03 12:02:08;;;;;;;14.43;7.17;;;5.00;99.90;;;;;;4975819;28;20232;-84
2022/03/03 12:05:31;;;;;;;11.90;6.23;;;4.90;99.90;;;;;;4979898;28;20263;-83
2022/03/03 12:07:59;;;;;;;11.20;6.60;;;4.90;99.90;;;;;;4959291;28;21017;-83
2022/03/03 12:10:29;;;;;;;10.67;6.67;;;5.20;99.90;;;;;;4961008;28;20203;-83
2022/03/03 12:13:30;;;;;;;11.23;6.80;;;5.30;99.90;;;;;;4977342;28;20624;-83
2022/03/03 12:16:22;;;;;;;10.30;6.20;;;5.10;99.90;;;;;;4979991;28;20625;-84
2022/03/03 12:18:56;;;;;;;8.83;6.27;;;5.20;99.90;;;;;;4968074;28;20194;-83
2022/03/03 12:21:41;;;;;;;9.57;6.13;;;5.20;99.90;;;;;;4959215;28;20200;-84
2022/03/03 12:24:41;;;;;;;10.27;5.80;;;5.50;99.90;;;;;;4961800;28;20167;-82
2022/03/03 12:27:15;;;;;;;10.03;5.93;;;5.50;99.90;;;;;;4981148;28;20174;-84
2022/03/03 12:29:48;;;;;;;14.67;8.03;;;5.40;99.90;;;;;;4972237;28;20185;-83
2022/03/03 12:32:35;;;;;;;9.73;6.00;;;5.80;99.90;;;;;;4959852;28;20200;-84
2022/03/03 12:35:22;;;;;;;9.63;6.40;;;5.90;99.90;;;;;;4982687;28;20263;-82
2022/03/03 12:37:48;;;;;;;9.53;6.70;;;5.80;99.90;;;;;;4953224;28;20215;-83
2022/03/03 12:40:22;;;;;;;9.03;6.60;;;5.80;99.90;;;;;;4962717;28;20201;-83
2022/03/03 12:42:56;;;;;;;9.97;6.07;;;6.00;99.90;;;;;;4987439;28;20164;-82
2022/03/03 12:45:34;;;;;;;11.30;7.20;;;6.10;99.90;;;;;;4962738;28;20188;-83
2022/03/03 12:48:41;;;;;;;9.67;6.73;;;6.00;99.90;;;;;;4958198;28;20181;-84
2022/03/03 12:51:23;;;;;;;11.10;7.10;;;5.70;99.90;;;;;;4974511;28;20291;-83
2022/03/03 12:54:10;;;;;;;11.13;7.27;;;5.50;99.90;;;;;;4958894;28;20191;-84
2022/03/03 12:56:59;;;;;;;10.87;7.17;;;5.30;99.90;;;;;;4946594;28;20180;-84
2022/03/03 12:59:37;;;;;;;11.93;6.80;;;5.40;99.90;;;;;;4963368;28;20180;-84
2022/03/03 13:02:24;;;;;;;11.67;6.87;;;5.40;99.90;;;;;;4984729;28;20188;-84
2022/03/03 13:04:55;;;;;;;11.70;7.60;;;5.40;99.90;;;;;;4961448;28;20238;-84
2022/03/03 13:07:21;;;;;;;11.50;7.47;;;5.40;99.90;;;;;;4965853;28;20247;-84
2022/03/03 13:09:57;;;;;;;10.37;6.90;;;5.50;99.90;;;;;;4965441;28;20168;-84
2022/03/03 13:12:44;;;;;;;14.20;8.37;;;5.70;99.90;;;;;;4965974;28;20215;-84
2022/03/03 13:15:31;;;;;;;12.30;7.47;;;5.80;99.90;;;;;;4976761;28;20182;-84
2022/03/03 13:18:02;;;;;;;13.67;8.17;;;5.90;99.90;;;;;;4956487;28;20298;-85
2022/03/03 13:20:39;;;;;;;12.03;7.73;;;5.80;99.90;;;;;;4966625;28;20202;-83
2022/03/03 13:23:25;;;;;;;12.93;8.13;;;5.80;99.90;;;;;;4969985;28;20174;-84
2022/03/03 13:26:11;;;;;;;14.13;8.40;;;5.90;99.90;;;;;;4977204;28;20192;-83
2022/03/03 13:29:00;;;;;;;11.33;7.17;;;6.00;99.90;;;;;;4967934;28;20183;-85
2022/03/03 13:31:36;;;;;;;11.67;7.17;;;6.10;99.90;;;;;;4982767;28;20200;-83
2022/03/03 13:34:12;;;;;;;11.43;7.23;;;6.10;99.90;;;;;;4979420;28;20255;-83
2022/03/03 13:36:42;;;;;;;10.53;6.83;;;5.90;99.90;;;;;;4966022;28;20173;-83
2022/03/03 13:39:25;;;;;;;10.90;6.97;;;6.00;99.90;;;;;;4962569;28;20184;-84
2022/03/03 13:42:10;;;;;;;11.37;6.87;;;6.00;99.90;;;;;;4978072;28;20224;-85
2022/03/03 13:44:38;;;;;;;10.73;6.50;;;5.90;99.90;;;;;;4980185;28;20173;-84
2022/03/03 13:47:11;;;;;;;12.70;6.90;;;5.90;99.90;;;;;;4981417;28;20267;-83
2022/03/03 13:49:40;;;;;;;13.70;6.93;;;5.90;99.90;;;;;;4980103;28;20223;-83
2022/03/03 13:52:13;;;;;;;10.43;6.87;;;6.00;99.90;;;;;;4984289;28;20232;-84
2022/03/03 13:54:49;;;;;;;11.27;6.37;;;6.00;99.90;;;;;;4962937;28;20181;-84
2022/03/03 13:57:49;;;;;;;11.30;6.83;;;6.20;99.90;;;;;;4961863;28;20263;-83
2022/03/03 14:00:35;;;;;;;10.17;6.57;;;6.20;99.90;;;;;;4958462;28;20210;-83
2022/03/03 14:03:04;;;;;;;10.50;7.10;;;6.20;99.90;;;;;;4963823;28;20307;-84
2022/03/03 14:05:30;;;;;;;11.30;5.57;;;6.30;99.90;;;;;;4994322;28;20173;-83
2022/03/03 14:07:57;;;;;;;7.07;4.90;;;6.30;99.90;;;;;;4961656;28;20205;-83
2022/03/03 14:10:26;;;;;;;9.70;5.27;;;6.10;99.90;;;;;;4960880;28;20263;-85
2022/03/03 14:13:06;;;;;;;8.50;4.70;;;6.00;99.90;;;;;;4957242;28;20190;-84
2022/03/03 14:15:32;;;;;;;7.97;5.03;;;6.00;99.90;;;;;;4969336;28;20216;-84
2022/03/03 14:17:58;;;;;;;6.60;4.77;;;6.00;99.90;;;;;;4963655;28;20211;-84
2022/03/03 14:20:25;;;;;;;8.53;5.00;;;5.90;99.90;;;;;;4976896;28;20205;-84
2022/03/03 14:22:58;;;;;;;10.17;5.60;;;5.90;99.90;;;;;;4964248;28;20174;-85
2022/03/03 14:25:28;;;;;;;10.50;6.03;;;5.90;99.90;;;;;;4967241;28;20175;-84
2022/03/03 14:27:57;;;;;;;9.13;5.73;;;6.00;99.90;;;;;;4978851;28;20200;-83
2022/03/03 14:30:26;;;;;;;9.00;5.47;;;6.10;99.90;;;;;;4977907;28;20204;-85
2022/03/03 14:32:51;;;;;;;6.93;5.10;;;6.10;99.90;;;;;;4957687;28;20192;-83
2022/03/03 14:35:20;;;;;;;7.33;4.43;;;6.20;99.90;;;;;;4965759;28;20200;-84
2022/03/03 14:37:55;;;;;;;7.97;4.90;;;6.40;99.90;;;;;;4965330;28;20232;-84
2022/03/03 14:40:28;;;;;;;7.03;4.50;;;6.80;99.90;;;;;;4965712;28;20202;-84
2022/03/03 14:43:27;;;;;;;5.63;4.33;;;7.70;99.90;;;;;;4957788;28;20196;-85
2022/03/03 14:46:09;;;;;;;6.80;4.40;;;10.50;99.20;;;;;;4942652;28;20180;-85
2022/03/03 14:48:44;;;;;;;6.43;3.80;;;11.70;95.00;;;;;;4959313;28;20187;-85
2022/03/03 14:51:13;;;;;;;5.60;4.57;;;14.00;89.70;;;;;;4971519;28;20206;-84
2022/03/03 14:53:48;;;;;;;4.87;3.63;;;18.10;63.60;;;;;;4960521;28;20176;-84
2022/03/03 14:56:44;;;;;;;4.97;4.03;;;21.20;48.80;;;;;;4965923;28;20194;-84
2022/03/03 14:59:12;;;;;;;4.77;3.77;;;23.10;42.90;;;;;;4970928;28;20188;-83
2022/03/03 15:01:57;;;;;;;5.67;3.70;;;21.80;40.20;;;;;;4959686;28;20219;-84
2022/03/03 15:07:20;;;;;;;5.23;4.20;;;15.70;48.50;;;;;;4974815;28;20230;-83
2022/03/03 15:09:58;;;;;;;6.73;4.60;;;12.80;55.20;;;;;;4961471;28;20180;-83
2022/03/03 15:12:31;;;;;;;6.80;4.73;;;10.50;64.10;;;;;;4973177;23;20223;-84
2022/03/03 15:14:59;;;;;;;6.70;4.27;;;9.00;88.60;;;;;;4975439;28;20201;-84
2022/03/03 15:17:25;;;;;;;8.07;4.73;;;8.00;94.40;;;;;;4948095;28;20222;-83
2022/03/03 15:19:51;;;;;;;6.17;4.80;;;7.60;98.00;;;;;;4968790;28;20210;-83
2022/03/03 15:22:17;;;;;;;7.60;4.30;;;7.20;99.40;;;;;;4967670;28;20207;-83
2022/03/03 15:24:44;;;;;;;7.33;4.87;;;6.80;99.90;;;;;;4963314;28;20187;-84
2022/03/03 15:27:13;;;;;;;6.37;4.87;;;6.50;99.90;;;;;;4957507;28;20252;-83
2022/03/03 15:29:40;;;;;;;7.77;5.00;;;6.30;99.90;;;;;;4961742;28;20178;-83
2022/03/03 15:32:07;;;;;;;6.50;5.10;;;6.40;99.90;;;;;;4960426;28;20234;-84
2022/03/03 15:37:23;;;;;;;6.30;3.97;;;10.30;98.80;;;;;;4989773;28;20198;-84
2022/03/03 15:39:49;;;;;;;8.03;4.27;;;12.50;90.70;;;;;;4973363;28;20184;-83
2022/03/03 15:42:17;;;;;;;7.33;4.23;;;13.00;80.10;;;;;;4971865;28;20206;-84
2022/03/03 15:44:45;;;;;;;6.90;5.20;;;12.90;74.80;;;;;;4967726;28;20175;-84
2022/03/03 15:47:11;;;;;;;5.30;4.60;;;12.50;75.90;;;;;;4962623;28;20271;-84
2022/03/03 15:49:42;;;;;;;6.30;4.50;;;12.00;75.50;;;;;;4962482;28;20266;-84
2022/03/03 15:52:09;;;;;;;7.30;4.90;;;11.20;78.10;;;;;;4959197;28;20229;-84
2022/03/03 15:54:39;;;;;;;6.53;5.23;;;10.20;82.80;;;;;;4962311;28;20638;-84
2022/03/03 15:57:06;;;;;;;6.50;4.77;;;9.40;90.50;;;;;;4957063;28;20209;-84
2022/03/03 15:59:32;;;;;;;6.93;5.20;;;8.60;93.80;;;;;;4949822;28;20196;-83
2022/03/03 16:01:59;;;;;;;6.53;5.20;;;7.90;97.50;;;;;;4961556;28;20207;-84
2022/03/03 16:04:25;;;;;;;6.40;4.77;;;7.30;99.90;;;;;;4960831;28;20172;-84
2022/03/03 16:06:54;;;;;;;7.27;5.00;;;6.90;99.90;;;;;;4955333;28;20185;-84
2022/03/03 16:09:24;;;;;;;6.40;5.07;;;6.70;99.90;;;;;;4949795;28;20207;-84
2022/03/03 16:11:50;;;;;;;7.37;5.07;;;6.60;99.90;;;;;;4957132;28;20270;-84
2022/03/03 16:14:16;;;;;;;9.90;5.23;;;6.50;99.90;;;;;;4965831;28;20262;-84
2022/03/03 16:16:42;;;;;;;9.10;5.67;;;6.30;99.90;;;;;;4960204;28;20175;-84
2022/03/03 16:19:08;;;;;;;7.83;5.07;;;6.20;99.90;;;;;;4957213;28;20175;-84
2022/03/03 16:21:37;;;;;;;9.00;5.40;;;6.00;99.90;;;;;;4956021;28;20202;-84
2022/03/03 16:24:05;;;;;;;8.17;5.30;;;5.90;99.90;;;;;;4981212;28;20196;-83
2022/03/03 16:26:32;;;;;;;9.50;5.27;;;5.80;99.90;;;;;;4958497;28;20544;-83
2022/03/03 16:28:57;;;;;;;9.80;5.87;;;5.70;99.90;;;;;;4957085;28;20176;-83
2022/03/03 16:32:02;;;;;;;8.53;5.20;;;5.60;99.90;;;;;;4962028;28;20314;-83
2022/03/03 16:34:29;;;;;;;7.70;4.93;;;5.70;99.90;;;;;;4975011;28;20259;-83
2022/03/03 16:36:56;;;;;;;7.07;5.20;;;5.70;99.90;;;;;;4959276;28;20199;-83
2022/03/03 16:39:22;;;;;;;8.67;5.87;;;5.50;99.90;;;;;;4958426;28;20185;-82
2022/03/03 16:41:48;;;;;;;7.70;4.80;;;5.40;99.90;;;;;;4963190;28;20259;-82
2022/03/03 16:44:15;;;;;;;9.50;5.47;;;5.30;99.90;;;;;;4955151;28;20264;-82
2022/03/03 16:46:41;;;;;;;9.37;5.63;;;5.20;99.90;;;;;;4954174;28;20172;-83
2022/03/03 16:49:07;;;;;;;8.37;5.60;;;5.20;99.90;;;;;;4958592;28;20191;-85
2022/03/03 16:51:35;;;;;;;7.40;5.53;;;5.10;99.90;;;;;;4960504;28;20199;-83
2022/03/03 16:54:03;;;;;;;9.97;5.83;;;5.00;99.90;;;;;;4954355;28;20180;-83
2022/03/03 16:56:29;;;;;;;10.13;5.70;;;4.90;99.90;;;;;;4959364;28;20243;-83
2022/03/03 16:58:55;;;;;;;9.17;5.63;;;4.90;99.90;;;;;;4959841;28;20200;-84
2022/03/03 17:01:21;;;;;;;10.63;5.83;;;4.90;99.90;;;;;;4964428;28;20202;-84
2022/03/03 17:03:46;;;;;;;10.83;5.70;;;5.00;99.90;;;;;;4958591;28;20242;-84
2022/03/03 17:06:12;;;;;;;11.10;6.40;;;5.00;99.90;;;;;;4958885;28;20180;-84
2022/03/03 17:08:38;;;;;;;11.90;6.30;;;5.00;99.90;;;;;;4960231;28;20546;-84
2022/03/03 17:11:03;;;;;;;10.73;6.87;;;4.90;99.90;;;;;;4958150;28;20216;-84
2022/03/03 17:13:29;;;;;;;11.07;7.33;;;4.80;99.90;;;;;;4958707;28;20184;-83
2022/03/03 17:15:55;;;;;;;10.70;7.27;;;4.70;99.90;;;;;;4963564;28;20183;-84
2022/03/03 17:18:21;;;;;;;12.47;7.20;;;4.60;99.90;;;;;;4960704;28;20236;-83
2022/03/03 17:20:47;;;;;;;12.17;7.63;;;4.60;99.90;;;;;;4961737;28;20236;-83
2022/03/03 17:23:13;;;;;;;13.03;8.30;;;4.50;99.90;;;;;;4960757;28;20176;-83
2022/03/03 17:25:40;;;;;;;13.67;8.33;;;4.50;99.90;;;;;;4963161;28;20186;-83
2022/03/03 17:28:06;;;;;;;12.20;7.40;;;4.40;99.90;;;;;;4958313;28;20180;-84
2022/03/03 17:30:32;;;;;;;14.63;8.83;;;4.40;99.90;;;;;;4962268;28;20176;-83
2022/03/03 17:32:58;;;;;;;11.23;7.90;;;4.50;99.90;;;;;;4959202;28;20184;-83
2022/03/03 17:35:24;;;;;;;14.50;8.57;;;4.60;99.90;;;;;;4964663;28;20287;-83
2022/03/03 17:37:51;;;;;;;12.97;8.73;;;4.50;99.90;;;;;;4962162;28;20225;-84
2022/03/03 17:40:21;;;;;;;12.27;8.10;;;4.40;99.90;;;;;;4963948;28;20188;-83
2022/03/03 17:42:47;;;;;;;12.43;8.70;;;4.30;99.90;;;;;;4964123;28;20185;-84
2022/03/03 17:45:12;;;;;;;13.23;9.17;;;4.30;99.90;;;;;;4965131;28;20184;-84
2022/03/03 17:47:38;;;;;;;15.67;9.13;;;4.20;99.90;;;;;;4965901;28;20247;-84
2022/03/03 17:50:05;;;;;;;13.80;9.57;;;4.00;99.90;;;;;;4966227;28;20189;-81
2022/03/03 17:52:31;;;;;;;16.90;9.67;;;4.00;99.90;;;;;;4965340;28;20204;-84
2022/03/03 17:54:56;;;;;;;13.83;8.73;;;4.00;99.90;;;;;;4963151;28;20210;-84
2022/03/03 17:57:23;;;;;;;14.83;9.73;;;3.90;99.90;;;;;;4961581;28;20227;-83
2022/03/03 17:59:49;;;;;;;14.50;8.90;;;3.90;99.90;;;;;;4958730;28;20262;-83
2022/03/03 18:02:15;;;;;;;17.17;9.90;;;3.90;99.90;;;;;;4970920;28;20199;-83
2022/03/03 18:04:41;;;;;;;15.67;9.23;;;3.90;99.90;;;;;;4968877;28;20188;-83
2022/03/03 18:07:07;;;;;;;17.67;9.70;;;3.80;99.90;;;;;;4964422;28;20216;-83
2022/03/03 18:09:32;;;;;;;19.20;10.27;;;3.70;99.90;;;;;;4958520;28;20179;-84
2022/03/03 18:11:59;;;;;;;16.20;9.10;;;3.60;99.90;;;;;;4953905;28;20221;-83
2022/03/03 18:14:25;;;;;;;14.43;9.40;;;3.70;99.90;;;;;;4957274;28;20183;-84
2022/03/03 18:16:51;;;;;;;15.93;9.53;;;3.70;99.90;;;;;;4958098;28;20194;-84
2022/03/03 18:19:19;;;;;;;14.90;9.30;;;3.70;99.90;;;;;;4957499;28;20187;-84
2022/03/03 18:21:46;;;;;;;15.43;10.00;;;3.70;99.90;;;;;;4960797;28;20191;-84
2022/03/03 18:24:16;;;;;;;17.27;10.20;;;3.70;99.90;;;;;;4958059;28;20202;-83
2022/03/03 18:26:59;;;;;;;13.10;9.90;;;3.50;99.90;;;;;;4955469;28;20175;-82
2022/03/03 18:29:25;;;;;;;17.20;10.10;;;3.50;99.90;;;;;;4953070;28;20176;-83
2022/03/03 18:31:51;;;;;;;14.87;10.27;;;3.40;99.90;;;;;;4960108;28;20713;-83